Time;durP1;ratioP1;P1;durP2;ratioP2;P2;SDS_P1;SDS_P2;PMS_P1;PMS_P2;Temp;Humidity;BMP_temperature;BMP_pressure;BME280_temperature;BME280_humidity;BME280_pressure;Samples;Min_cycle;Max_cycle;Signal;HPM_P1;HPM_P2
2021/01/04 00:01:40;;;;;;;15.90;8.43;;;;;;;8.15;70.94;94591.59;5034466;28;20523;-73
2021/01/04 00:04:34;;;;;;;18.67;8.83;;;;;;;7.95;71.32;94581.88;5050201;28;20427;-74
2021/01/04 00:07:27;;;;;;;14.43;8.63;;;;;;;7.92;71.80;94580.66;5047929;28;20423;-74
2021/01/04 00:10:10;;;;;;;15.03;8.00;;;;;;;8.10;71.54;94585.72;5034257;28;20430;-74
2021/01/04 00:12:49;;;;;;;12.50;7.63;;;;;;;8.08;71.65;94587.94;5034632;28;20995;-72
2021/01/04 00:15:27;;;;;;;12.47;7.03;;;;;;;8.13;71.24;94585.81;5049298;28;20429;-72
2021/01/04 00:18:11;;;;;;;12.80;7.03;;;;;;;7.96;71.82;94586.84;5034353;28;20415;-72
2021/01/04 00:20:58;;;;;;;12.30;7.47;;;;;;;7.89;71.62;94583.22;5049907;28;20480;-74
2021/01/04 00:23:55;;;;;;;13.10;7.07;;;;;;;7.82;71.61;94585.66;5048222;28;20411;-72
2021/01/04 00:26:24;;;;;;;15.10;7.10;;;;;;;7.73;72.30;94564.50;5034095;28;20431;-73
2021/01/04 00:28:50;;;;;;;12.40;7.10;;;;;;;7.64;72.77;94556.66;5049553;28;20502;-72
2021/01/04 00:31:27;;;;;;;10.37;6.23;;;;;;;7.71;72.97;94568.63;5033104;28;21007;-73
2021/01/04 00:34:17;;;;;;;9.87;5.80;;;;;;;7.79;72.70;94575.69;5034166;28;20434;-73
2021/01/04 00:36:48;;;;;;;9.07;5.40;;;;;;;8.00;72.12;94572.88;5033698;28;20447;-73
2021/01/04 00:39:31;;;;;;;9.37;6.03;;;;;;;7.91;72.17;94559.72;5034178;28;20425;-71
2021/01/04 00:42:24;;;;;;;14.53;7.47;;;;;;;7.69;72.10;94553.78;5033932;28;20419;-74
2021/01/04 00:45:02;;;;;;;14.20;8.67;;;;;;;7.56;72.39;94552.22;5046555;28;20876;-74
2021/01/04 00:47:42;;;;;;;17.00;9.27;;;;;;;7.51;72.47;94546.38;5033784;28;20423;-73
2021/01/04 00:50:35;;;;;;;18.03;9.27;;;;;;;7.46;72.74;94547.34;5032584;28;20530;-72
2021/01/04 00:53:03;;;;;;;15.63;9.50;;;;;;;7.52;73.03;94550.56;5011829;28;20944;-72
2021/01/04 00:55:44;;;;;;;17.47;9.40;;;;;;;7.55;72.43;94547.25;5011672;28;20430;-73
2021/01/04 00:58:33;;;;;;;16.90;9.70;;;;;;;7.46;73.14;94538.63;5011481;28;20498;-72
2021/01/04 01:01:18;;;;;;;15.73;8.53;;;;;;;7.73;71.82;94553.88;4995393;28;20446;-72
2021/01/04 01:04:02;;;;;;;18.67;8.67;;;;;;;7.69;72.35;94548.47;4995096;28;20432;-73
2021/01/04 01:06:38;;;;;;;15.70;8.90;;;;;;;7.54;72.53;94541.16;5011590;28;20863;-72
2021/01/04 01:09:07;;;;;;;18.77;10.20;;;;;;;7.38;73.34;94542.94;5010796;28;20432;-72
2021/01/04 01:12:03;;;;;;;18.90;11.97;;;;;;;7.37;73.90;94531.53;5011266;28;20490;-72
2021/01/04 01:14:42;;;;;;;18.70;9.43;;;;;;;7.52;73.30;94530.13;5011661;28;20490;-72
2021/01/04 01:17:10;;;;;;;22.20;12.10;;;;;;;7.53;73.09;94531.66;5011198;28;20442;-71
2021/01/04 01:19:41;;;;;;;26.30;13.07;;;;;;;7.75;72.25;94540.28;5011641;28;20482;-71
2021/01/04 01:22:06;;;;;;;22.77;12.27;;;;;;;7.86;72.10;94533.38;5011070;28;20481;-72
2021/01/04 01:24:32;;;;;;;26.83;13.13;;;;;;;7.93;71.81;94525.59;5011416;28;21205;-72
2021/01/04 01:27:23;;;;;;;25.17;13.43;;;;;;;7.90;71.89;94513.75;5011068;28;20294;-72
2021/01/04 01:30:07;;;;;;;23.90;12.83;;;;;;;7.85;71.99;94524.59;5017562;28;20267;-72
2021/01/04 01:32:47;;;;;;;30.53;13.80;;;;;;;7.84;72.22;94527.59;5033059;28;20473;-73
2021/01/04 01:35:31;;;;;;;25.67;12.67;;;;;;;7.69;72.35;94527.22;5031614;28;20457;-74
2021/01/04 01:38:24;;;;;;;25.00;14.00;;;;;;;7.68;72.16;94533.59;5032918;28;20465;-73
2021/01/04 01:40:54;;;;;;;30.77;15.23;;;;;;;7.61;72.87;94530.75;5048280;28;21059;-71
2021/01/04 01:43:41;;;;;;;28.17;17.23;;;;;;;7.64;73.07;94516.03;5048060;28;20411;-72
2021/01/04 01:46:08;;;;;;;40.00;20.10;;;;;;;7.61;73.23;94516.69;5032882;28;20461;-72
2021/01/04 01:49:03;;;;;;;34.97;19.80;;;;;;;7.80;73.94;94526.72;5047792;28;20813;-73
2021/01/04 01:51:34;;;;;;;41.57;26.97;;;;;;;7.84;73.96;94520.41;5048085;28;20510;-73
2021/01/04 01:54:14;;;;;;;50.07;29.03;;;;;;;7.97;73.61;94529.16;5047878;28;20955;-73
2021/01/04 01:57:13;;;;;;;48.83;28.80;;;;;;;7.95;73.49;94537.44;5031308;28;20415;-73
2021/01/04 02:00:07;;;;;;;45.83;27.70;;;;;;;7.79;74.77;94549.88;5030339;28;20459;-73
2021/01/04 02:03:01;;;;;;;44.60;25.30;;;;;;;7.73;74.91;94553.09;5014051;28;20433;-74
2021/01/04 02:05:51;;;;;;;35.43;22.80;;;;;;;7.86;74.17;94562.63;5016032;28;20434;-73
2021/01/04 02:08:21;;;;;;;35.23;20.57;;;;;;;7.92;74.36;94545.34;5030275;28;20427;-73
2021/01/04 02:10:50;;;;;;;30.17;17.90;;;;;;;8.05;73.72;94554.81;5029901;28;20493;-72
2021/01/04 02:13:35;;;;;;;26.97;16.07;;;;;;;8.10;73.90;94537.84;4997321;28;20466;-72
2021/01/04 02:16:11;;;;;;;29.73;16.43;;;;;;;8.14;73.94;94544.84;5013519;28;20814;-73
2021/01/04 02:19:32;;;;;;;24.70;15.37;;;;;;;7.98;75.66;94538.66;5029963;28;20798;-71
2021/01/04 02:22:29;;;;;;;23.20;14.77;;;;;;;7.89;75.40;94530.81;4951662;29;20434;-72
2021/01/04 02:24:54;;;;;;;32.80;16.27;;;;;;;7.90;76.39;94521.72;4952087;29;20430;-73
2021/01/04 02:27:28;;;;;;;26.47;14.40;;;;;;;7.87;76.99;94517.09;4951826;29;20470;-72
2021/01/04 02:29:54;;;;;;;32.40;15.90;;;;;;;7.52;78.19;94514.16;4952008;29;20769;-73
2021/01/04 02:32:19;;;;;;;24.00;13.47;;;;;;;7.48;78.60;94509.84;4951608;29;20573;-72
2021/01/04 02:34:48;;;;;;;23.20;12.37;;;;;;;7.43;78.27;94513.50;4951676;29;20277;-72
2021/01/04 02:37:13;;;;;;;19.07;11.53;;;;;;;7.65;77.74;94498.97;4954924;28;20733;-72
2021/01/04 02:39:50;;;;;;;22.73;11.83;;;;;;;7.88;77.29;94510.66;4971068;28;20516;-72
2021/01/04 02:42:18;;;;;;;18.80;10.93;;;;;;;7.95;76.70;94513.50;4970698;28;20236;-72
2021/01/04 02:44:44;;;;;;;17.57;10.70;;;;;;;7.89;76.95;94503.44;4971051;28;20432;-72
2021/01/04 02:47:24;;;;;;;18.50;10.20;;;;;;;7.68;78.30;94499.06;4970625;28;20430;-72
2021/01/04 02:50:24;;;;;;;18.37;10.67;;;;;;;7.82;77.21;94492.63;4970903;28;21688;-72
2021/01/04 02:53:34;;;;;;;18.37;10.90;;;;;;;7.45;79.31;94495.34;4970955;28;20469;-72
2021/01/04 02:56:39;;;;;;;16.27;9.60;;;;;;;7.76;78.76;94500.06;4971552;28;20429;-73
2021/01/04 02:59:18;;;;;;;16.37;9.70;;;;;;;7.87;78.07;94503.03;5031360;28;20411;-72
2021/01/04 03:02:05;;;;;;;16.97;8.60;;;;;;;7.83;77.78;94510.88;5046712;28;20431;-72
2021/01/04 03:04:32;;;;;;;15.13;9.23;;;;;;;7.86;77.37;94510.22;5031581;28;20455;-73
2021/01/04 03:06:58;;;;;;;20.60;9.33;;;;;;;7.88;77.22;94517.88;5030499;28;20438;-73
2021/01/04 03:09:25;;;;;;;20.43;9.93;;;;;;;7.85;77.46;94510.53;5046974;28;20430;-72
2021/01/04 03:11:51;;;;;;;16.10;10.00;;;;;;;7.80;77.38;94508.13;5031381;28;20533;-73
2021/01/04 03:14:35;;;;;;;18.97;10.57;;;;;;;7.78;78.01;94510.34;5030128;28;20420;-72
2021/01/04 03:17:37;;;;;;;17.83;9.97;;;;;;;7.98;77.03;94509.41;5031228;28;20635;-71
2021/01/04 03:20:06;;;;;;;18.47;10.07;;;;;;;8.03;76.58;94519.81;5031447;28;20418;-73
2021/01/04 03:22:32;;;;;;;20.40;10.67;;;;;;;8.04;77.00;94510.72;5029986;28;20491;-71
2021/01/04 03:24:57;;;;;;;19.50;9.93;;;;;;;7.92;77.80;94503.56;5031815;28;20917;-72
2021/01/04 03:27:30;;;;;;;17.23;10.00;;;;;;;8.04;77.62;94502.75;5030844;28;20176;-72
2021/01/04 03:29:55;;;;;;;16.50;8.97;;;;;;;8.05;77.61;94492.88;5046437;28;20184;-71
2021/01/04 03:32:21;;;;;;;18.80;10.10;;;;;;;7.89;78.30;94476.88;5032877;28;20485;-71
2021/01/04 03:34:46;;;;;;;17.83;9.30;;;;;;;7.89;77.92;94467.00;5035296;28;20168;-71
2021/01/04 03:37:12;;;;;;;13.27;8.83;;;;;;;8.04;76.96;94462.88;5050275;28;20710;-72
2021/01/04 03:39:37;;;;;;;15.97;8.50;;;;;;;8.10;77.43;94458.09;5035114;28;20172;-71
2021/01/04 03:42:03;;;;;;;14.23;8.73;;;;;;;8.08;77.33;94453.09;5035100;28;20234;-72
2021/01/04 03:44:29;;;;;;;17.43;8.03;;;;;;;8.16;77.30;94452.19;5034916;28;20185;-72
2021/01/04 03:46:54;;;;;;;15.00;8.47;;;;;;;8.10;77.62;94450.09;5050405;28;20685;-71
2021/01/04 03:49:20;;;;;;;15.53;8.60;;;;;;;8.05;77.48;94461.75;5034688;28;20172;-71
2021/01/04 03:51:56;;;;;;;14.70;9.30;;;;;;;8.22;76.39;94466.00;5033756;28;20180;-71
2021/01/04 03:54:22;;;;;;;18.07;9.17;;;;;;;8.25;75.84;94467.19;5034633;28;20317;-72
2021/01/04 03:56:47;;;;;;;16.57;9.10;;;;;;;8.19;75.93;94458.69;5034912;28;20890;-71
2021/01/04 03:59:13;;;;;;;14.47;8.80;;;;;;;8.21;76.11;94440.53;5033464;28;20655;-72
2021/01/04 04:01:39;;;;;;;14.97;8.03;;;;;;;8.26;76.69;94442.94;5034655;28;20263;-71
2021/01/04 04:04:04;;;;;;;25.37;12.10;;;;;;;8.14;77.47;94437.69;5033460;28;20196;-72
2021/01/04 04:06:30;;;;;;;20.17;9.97;;;;;;;8.07;77.09;94443.56;5034746;28;20173;-71
2021/01/04 04:08:55;;;;;;;16.60;9.83;;;;;;;7.91;77.57;94440.88;5034472;28;20522;-71
2021/01/04 04:11:21;;;;;;;13.83;8.97;;;;;;;8.07;76.77;94424.19;5034412;28;20164;-71
2021/01/04 04:13:46;;;;;;;18.80;9.57;;;;;;;8.21;76.03;94425.34;5034530;28;20265;-71
2021/01/04 04:16:14;;;;;;;15.77;8.40;;;;;;;8.33;75.58;94413.84;5034345;28;20168;-71
2021/01/04 04:18:39;;;;;;;13.57;8.87;;;;;;;8.32;75.98;94417.63;5033202;28;20263;-71
2021/01/04 04:21:05;;;;;;;16.60;9.80;;;;;;;8.32;75.51;94404.34;5034209;28;20504;-71
2021/01/04 04:23:30;;;;;;;17.03;8.77;;;;;;;8.37;75.62;94395.38;5034343;28;20216;-71
2021/01/04 04:25:56;;;;;;;14.67;9.73;;;;;;;8.36;75.95;94394.59;5034029;28;20642;-71
2021/01/04 04:28:21;;;;;;;15.97;8.67;;;;;;;8.26;76.79;94399.63;5034177;28;20216;-71
2021/01/04 04:30:46;;;;;;;17.30;9.23;;;;;;;8.07;77.45;94413.53;5034041;28;20254;-71
2021/01/04 04:33:12;;;;;;;16.93;9.17;;;;;;;7.99;77.91;94412.59;5034096;28;20239;-70
2021/01/04 04:35:37;;;;;;;14.03;8.50;;;;;;;8.00;77.33;94416.03;5034239;28;20176;-70
2021/01/04 04:38:04;;;;;;;16.43;9.50;;;;;;;7.86;77.75;94398.59;5033928;28;20263;-71
2021/01/04 04:40:33;;;;;;;17.80;10.77;;;;;;;8.01;77.70;94401.59;5033957;28;20188;-70
2021/01/04 04:43:11;;;;;;;20.37;10.00;;;;;;;7.90;77.73;94393.34;5032740;28;20423;-70
2021/01/04 04:45:36;;;;;;;13.77;9.43;;;;;;;8.05;77.77;94403.25;5032951;28;20415;-70
2021/01/04 04:48:02;;;;;;;18.73;10.97;;;;;;;8.02;77.63;94397.84;5032630;28;20791;-73
2021/01/04 04:50:49;;;;;;;14.50;9.37;;;;;;;8.16;77.42;94396.31;5033911;28;20231;-70
2021/01/04 04:53:18;;;;;;;16.67;10.70;;;;;;;8.05;78.10;94400.59;5047937;28;20208;-70
2021/01/04 04:56:12;;;;;;;17.73;10.33;;;;;;;8.15;77.23;94400.09;5033779;28;20423;-70
2021/01/04 04:58:43;;;;;;;18.07;9.57;;;;;;;8.07;78.42;94397.59;5046830;28;20419;-71
2021/01/04 05:01:19;;;;;;;20.23;10.30;;;;;;;8.04;77.93;94398.28;5033616;28;20435;-71
2021/01/04 05:03:46;;;;;;;20.37;10.57;;;;;;;8.05;77.79;94389.19;5048966;28;20430;-71
2021/01/04 05:06:30;;;;;;;18.47;10.70;;;;;;;7.96;78.23;94397.31;5032132;28;20870;-71
2021/01/04 05:09:18;;;;;;;18.90;10.27;;;;;;;8.12;77.54;94400.00;5033693;28;20419;-73
2021/01/04 05:11:45;;;;;;;19.40;10.80;;;;;;;8.17;77.64;94403.19;5033211;28;20434;-71
2021/01/04 05:14:20;;;;;;;16.23;9.23;;;;;;;8.17;77.46;94403.19;5031960;28;20925;-70
2021/01/04 05:17:10;;;;;;;17.87;10.03;;;;;;;8.25;76.97;94398.03;5032268;28;20800;-72
2021/01/04 05:20:03;;;;;;;19.77;10.83;;;;;;;8.26;76.90;94394.28;5033164;28;20423;-71
2021/01/04 05:23:06;;;;;;;20.20;10.80;;;;;;;8.16;76.65;94388.34;5033205;28;20437;-73
2021/01/04 05:25:34;;;;;;;17.87;10.70;;;;;;;8.15;77.18;94384.16;5033331;28;20426;-70
2021/01/04 05:28:28;;;;;;;23.57;10.40;;;;;;;8.29;77.13;94375.75;5032822;28;20463;-72
2021/01/04 05:31:41;;;;;;;19.47;11.30;;;;;;;8.28;77.25;94365.44;5031637;28;20455;-73
2021/01/04 05:34:09;;;;;;;18.20;10.60;;;;;;;8.35;76.70;94349.66;5030807;28;20442;-73
2021/01/04 05:36:44;;;;;;;22.23;10.33;;;;;;;8.37;76.91;94347.47;5014228;28;20435;-71
2021/01/04 05:39:26;;;;;;;21.47;10.97;;;;;;;8.28;77.46;94342.28;5014311;28;20435;-71
2021/01/04 05:42:05;;;;;;;19.73;11.47;;;;;;;8.25;76.98;94344.84;5014141;28;20430;-72
2021/01/04 05:44:40;;;;;;;20.20;12.03;;;;;;;8.38;77.24;94346.34;5013939;28;20470;-72
2021/01/04 05:47:22;;;;;;;23.47;12.77;;;;;;;8.05;78.45;94334.13;5030518;28;20433;-73
2021/01/04 05:49:58;;;;;;;23.23;11.77;;;;;;;8.19;77.70;94334.50;5030356;28;20431;-71
2021/01/04 05:52:24;;;;;;;20.00;12.23;;;;;;;8.15;78.38;94335.50;5013205;28;20849;-70
2021/01/04 05:54:50;;;;;;;16.40;10.37;;;;;;;8.23;77.98;94332.66;5012847;28;20526;-70
2021/01/04 05:57:17;;;;;;;20.97;11.70;;;;;;;8.27;77.54;94334.66;5030259;28;20419;-71
2021/01/04 05:59:48;;;;;;;21.50;11.47;;;;;;;8.26;77.55;94335.78;5013233;28;20250;-72
2021/01/04 06:02:30;;;;;;;19.27;11.20;;;;;;;8.28;77.45;94323.66;5030184;28;20522;-70
2021/01/04 06:05:12;;;;;;;19.73;11.03;;;;;;;8.31;77.30;94330.19;5023838;28;20554;-70
2021/01/04 06:07:38;;;;;;;19.63;11.43;;;;;;;8.30;77.74;94334.72;5030197;28;20427;-70
2021/01/04 06:10:06;;;;;;;20.07;9.83;;;;;;;8.38;77.46;94331.16;5010905;28;20977;-70
2021/01/04 06:12:38;;;;;;;16.40;9.37;;;;;;;8.41;77.68;94341.09;5011061;28;21013;-70
2021/01/04 06:15:04;;;;;;;20.57;11.23;;;;;;;8.36;77.57;94335.25;5010915;28;20408;-70
2021/01/04 06:17:31;;;;;;;18.90;10.13;;;;;;;8.41;77.38;94337.66;5007562;28;20795;-71
2021/01/04 06:20:10;;;;;;;20.23;9.93;;;;;;;8.42;78.30;94336.59;4992369;28;20497;-71
2021/01/04 06:22:35;;;;;;;14.63;9.03;;;;;;;8.29;78.43;94333.19;5011113;28;20427;-70
2021/01/04 06:25:05;;;;;;;17.83;9.33;;;;;;;8.44;78.19;94327.13;5012121;28;20960;-71
2021/01/04 06:27:38;;;;;;;15.27;8.43;;;;;;;8.43;77.79;94325.59;5012193;28;20181;-70
2021/01/04 06:30:26;;;;;;;14.03;8.70;;;;;;;8.42;77.53;94313.41;5012000;28;20794;-70
2021/01/04 06:32:51;;;;;;;16.70;10.03;;;;;;;8.47;77.61;94307.03;5010788;28;20457;-71
2021/01/04 06:35:29;;;;;;;18.23;9.77;;;;;;;8.47;77.83;94318.47;4994750;28;20453;-70
2021/01/04 06:38:05;;;;;;;16.80;10.30;;;;;;;8.46;77.97;94316.91;5011966;28;20925;-70
2021/01/04 06:40:32;;;;;;;20.10;10.73;;;;;;;8.42;78.29;94310.75;5012020;28;20494;-71
2021/01/04 06:43:06;;;;;;;20.43;10.57;;;;;;;8.41;78.79;94311.06;5011000;28;20439;-70
2021/01/04 06:45:37;;;;;;;15.70;9.40;;;;;;;8.56;78.46;94312.19;5010894;28;20430;-71
2021/01/04 06:48:28;;;;;;;16.13;8.93;;;;;;;8.58;78.20;94302.72;4994743;28;20420;-71
2021/01/04 06:51:37;;;;;;;16.07;9.40;;;;;;;8.60;78.24;94297.06;4995183;28;20427;-70
2021/01/04 06:54:07;;;;;;;14.73;8.33;;;;;;;8.58;78.44;94293.97;5029426;28;20557;-70
2021/01/04 06:57:02;;;;;;;13.60;8.60;;;;;;;8.51;79.02;94293.81;5012702;28;20431;-72
2021/01/04 07:00:04;;;;;;;14.10;8.87;;;;;;;8.46;79.14;94292.19;5012935;28;20423;-72
2021/01/04 07:02:53;;;;;;;18.50;9.97;;;;;;;8.41;79.67;94298.53;5029351;28;20972;-73
2021/01/04 07:05:43;;;;;;;16.20;8.53;;;;;;;8.50;79.42;94297.59;5015271;28;20532;-71
2021/01/04 07:08:45;;;;;;;13.07;8.63;;;;;;;8.51;79.30;94299.13;5014719;28;20434;-70
2021/01/04 07:11:33;;;;;;;14.17;8.10;;;;;;;8.54;79.17;94298.47;5029215;28;20458;-71
2021/01/04 07:14:15;;;;;;;14.53;7.70;;;;;;;8.60;78.36;94289.84;5015030;28;20865;-72
2021/01/04 07:16:45;;;;;;;15.67;7.83;;;;;;;8.53;79.51;94278.25;5028970;28;20884;-72
2021/01/04 07:19:13;;;;;;;15.27;8.00;;;;;;;8.41;80.07;94287.13;5012893;28;20423;-71
2021/01/04 07:21:50;;;;;;;13.80;7.57;;;;;;;8.56;79.56;94270.38;5029171;28;20437;-72
2021/01/04 07:24:24;;;;;;;13.10;7.83;;;;;;;8.65;78.52;94262.97;5014036;28;20904;-72
2021/01/04 07:27:08;;;;;;;11.73;6.93;;;;;;;8.70;77.65;94259.28;5013116;28;20833;-74
2021/01/04 07:29:43;;;;;;;9.60;6.50;;;;;;;8.71;77.60;94260.81;5019412;28;20566;-75
2021/01/04 07:32:24;;;;;;;9.37;6.30;;;;;;;8.65;77.51;94268.31;5010559;28;20865;-75
2021/01/04 07:35:17;;;;;;;9.30;5.33;;;;;;;8.71;76.49;94255.50;5010148;28;20432;-74
2021/01/04 07:37:52;;;;;;;10.90;4.90;;;;;;;8.69;76.63;94255.06;5026468;28;20448;-72
2021/01/04 07:40:51;;;;;;;8.93;6.00;;;;;;;8.76;76.42;94257.13;5011136;28;20506;-70
2021/01/04 07:43:41;;;;;;;9.77;5.33;;;;;;;8.77;76.39;94242.69;5009859;28;20419;-70
2021/01/04 07:46:18;;;;;;;10.63;5.30;;;;;;;8.88;75.86;94233.03;5011419;28;20507;-70
2021/01/04 07:49:15;;;;;;;11.10;5.00;;;;;;;8.78;76.34;94233.56;5011620;28;20902;-70
2021/01/04 07:51:56;;;;;;;6.50;4.43;;;;;;;8.79;76.36;94227.13;5011118;28;20933;-70
2021/01/04 07:54:50;;;;;;;8.00;4.93;;;;;;;8.79;76.72;94219.13;5010201;28;20513;-70
2021/01/04 07:57:48;;;;;;;8.90;5.33;;;;;;;8.92;76.39;94229.31;5010366;28;20420;-74
2021/01/04 08:00:26;;;;;;;10.87;5.20;;;;;;;8.92;76.03;94225.88;5009914;28;20847;-72
2021/01/04 08:03:09;;;;;;;7.27;3.77;;;;;;;8.91;75.97;94214.44;5010239;28;20423;-72
2021/01/04 08:06:13;;;;;;;7.97;4.70;;;;;;;8.85;75.75;94201.75;5012302;28;20420;-74
2021/01/04 08:08:44;;;;;;;5.87;4.33;;;;;;;8.94;75.67;94202.34;5028382;28;20434;-75
2021/01/04 08:11:31;;;;;;;9.30;5.63;;;;;;;8.91;75.57;94203.78;5028695;28;20525;-74
2021/01/04 08:14:29;;;;;;;5.80;3.90;;;;;;;8.87;75.68;94202.22;5028591;28;20478;-74
2021/01/04 08:17:00;;;;;;;8.30;4.13;;;;;;;8.83;76.01;94218.09;5014381;28;20477;-75
2021/01/04 08:19:25;;;;;;;9.77;4.90;;;;;;;8.81;75.84;94200.91;5015959;28;20473;-75
2021/01/04 08:22:00;;;;;;;11.90;4.37;;;;;;;8.79;75.93;94203.16;5015632;28;20941;-77
2021/01/04 08:24:40;;;;;;;9.57;4.23;;;;;;;8.80;75.37;94194.81;5032357;28;20283;-75
2021/01/04 08:27:17;;;;;;;7.17;3.93;;;;;;;10.78;85.61;94187.81;5031941;28;20415;-75
2021/01/04 08:30:00;;;;;;;9.03;4.87;;;;;;;10.25;70.43;94185.19;5031924;28;20564;-78
2021/01/04 08:32:43;;;;;;;10.40;4.90;;;;;;;9.71;71.92;94175.56;5032121;28;20887;-72
2021/01/04 08:35:12;;;;;;;5.27;4.20;;;;;;;9.44;72.90;94184.63;5015143;28;20451;-73
2021/01/04 08:37:40;;;;;;;7.00;3.97;;;;;;;9.33;73.40;94175.69;5032723;28;20419;-72
2021/01/04 08:40:21;;;;;;;5.73;3.77;;;;;;;9.10;73.31;94187.06;5031616;28;20952;-73
2021/01/04 08:42:58;;;;;;;9.77;4.10;;;;;;;9.01;73.25;94168.63;5021815;28;20423;-71
2021/01/04 08:45:29;;;;;;;9.03;4.00;;;;;;;9.13;73.04;94161.59;5012747;28;20412;-71
2021/01/04 08:47:57;;;;;;;8.63;4.23;;;;;;;9.03;73.25;94160.28;5012856;28;20998;-71
2021/01/04 08:50:23;;;;;;;7.93;4.03;;;;;;;8.92;74.06;94162.75;4996729;28;20408;-71
2021/01/04 08:52:54;;;;;;;6.40;3.87;;;;;;;8.75;74.47;94157.84;5013886;28;20985;-72
2021/01/04 08:55:27;;;;;;;6.17;3.63;;;;;;;8.80;74.95;94156.78;5014359;28;20185;-71
2021/01/04 08:57:53;;;;;;;5.70;3.60;;;;;;;8.79;74.90;94128.63;5013694;28;20455;-72
2021/01/04 09:00:22;;;;;;;7.13;3.70;;;;;;;8.80;74.24;94132.84;5013702;28;20424;-72
2021/01/04 09:02:48;;;;;;;7.40;4.57;;;;;;;8.85;74.71;94140.53;5013752;28;20609;-72
2021/01/04 09:05:36;;;;;;;5.33;3.67;;;;;;;8.88;74.38;94135.28;5012236;28;20598;-71
2021/01/04 09:08:02;;;;;;;9.90;4.20;;;;;;;8.85;74.08;94138.66;5013969;28;20559;-72
2021/01/04 09:10:45;;;;;;;11.30;4.10;;;;;;;8.93;73.77;94139.56;4996673;28;20474;-72
2021/01/04 09:13:29;;;;;;;8.87;4.77;;;;;;;8.91;75.17;94139.13;5012282;28;21002;-72
2021/01/04 09:15:55;;;;;;;9.20;4.20;;;;;;;9.04;74.69;94129.13;5013421;28;20424;-72
2021/01/04 09:18:43;;;;;;;7.13;4.63;;;;;;;9.08;74.58;94124.59;5012348;28;20459;-72
2021/01/04 09:21:34;;;;;;;10.03;4.97;;;;;;;9.13;73.39;94126.97;5013562;28;20231;-72
2021/01/04 09:24:15;;;;;;;6.80;4.57;;;;;;;9.13;74.05;94116.31;5012566;28;20486;-72
2021/01/04 09:26:41;;;;;;;7.77;5.17;;;;;;;9.14;73.84;94113.31;5012460;28;20539;-72
2021/01/04 09:29:12;;;;;;;10.83;5.17;;;;;;;9.24;74.04;94104.72;5012168;28;21060;-73
2021/01/04 09:31:58;;;;;;;9.07;4.63;;;;;;;9.26;73.84;94101.72;5013520;28;20173;-74
2021/01/04 09:34:29;;;;;;;7.30;4.50;;;;;;;9.17;73.17;94090.53;5013314;28;20466;-73
2021/01/04 09:37:01;;;;;;;5.73;4.30;;;;;;;9.21;72.89;94096.69;5011816;28;20428;-74
2021/01/04 09:39:29;;;;;;;9.30;4.37;;;;;;;9.26;72.93;94097.16;5011408;28;20450;-73
2021/01/04 09:41:57;;;;;;;10.70;5.50;;;;;;;9.34;72.41;94089.28;5027781;28;20523;-75
2021/01/04 09:44:22;;;;;;;10.13;5.17;;;;;;;9.41;72.06;94086.72;4995694;28;20420;-74
2021/01/04 09:46:55;;;;;;;7.93;4.73;;;;;;;9.52;71.84;94088.44;5012984;28;20805;-74
2021/01/04 09:49:27;;;;;;;8.93;5.40;;;;;;;9.47;71.75;94101.28;5011492;28;20184;-74
2021/01/04 09:52:00;;;;;;;10.47;5.60;;;;;;;9.48;71.88;94100.97;4995996;28;20432;-76
2021/01/04 09:54:28;;;;;;;9.67;5.30;;;;;;;9.47;72.60;94101.28;5011734;28;20412;-74
2021/01/04 09:56:59;;;;;;;8.13;5.30;;;;;;;9.56;72.07;94099.16;4995650;28;20408;-75
2021/01/04 09:59:25;;;;;;;6.90;4.83;;;;;;;9.56;71.68;94099.16;5011727;28;20507;-74
2021/01/04 10:02:01;;;;;;;9.60;5.20;;;;;;;9.43;71.83;94103.16;5012936;28;20833;-74
2021/01/04 10:04:31;;;;;;;8.27;4.83;;;;;;;9.38;72.05;94100.78;5012834;28;20185;-75
2021/01/04 10:07:03;;;;;;;9.17;5.30;;;;;;;9.32;72.54;94088.88;5012583;28;20416;-75
2021/01/04 10:09:31;;;;;;;8.27;5.43;;;;;;;9.40;72.92;94088.63;5011495;28;20421;-74
2021/01/04 10:11:59;;;;;;;10.60;4.97;;;;;;;9.44;72.03;94086.03;5011317;28;20514;-74
2021/01/04 10:14:25;;;;;;;8.20;5.60;;;;;;;9.47;72.70;94072.75;5012246;28;20424;-74
2021/01/04 10:16:51;;;;;;;9.37;5.33;;;;;;;9.49;71.78;94075.06;5012989;28;20419;-77
2021/01/04 10:19:23;;;;;;;8.93;4.97;;;;;;;9.45;72.77;94059.03;5011156;28;20227;-74
2021/01/04 10:21:48;;;;;;;8.17;5.30;;;;;;;9.50;72.65;94050.72;4995090;28;20420;-73
2021/01/04 10:24:20;;;;;;;13.07;5.60;;;;;;;9.50;72.41;94053.38;5012128;28;21007;-73
2021/01/04 10:26:46;;;;;;;8.97;4.50;;;;;;;9.39;72.66;94054.34;5011137;28;20177;-72
2021/01/04 10:29:17;;;;;;;10.97;6.03;;;;;;;9.44;72.98;94046.06;5010578;28;20475;-73
2021/01/04 10:31:43;;;;;;;12.10;5.70;;;;;;;9.42;73.24;94042.97;5011056;28;20424;-72
2021/01/04 10:34:11;;;;;;;9.50;5.77;;;;;;;9.53;73.02;94035.91;5012094;28;20880;-73
2021/01/04 10:36:36;;;;;;;9.30;5.73;;;;;;;9.50;73.64;94034.75;5012147;28;20176;-73
2021/01/04 10:39:22;;;;;;;12.33;6.63;;;;;;;9.53;73.02;94039.34;5010691;28;20969;-73
2021/01/04 10:41:48;;;;;;;12.33;8.00;;;;;;;9.52;73.74;94037.81;5011648;28;20189;-73
2021/01/04 10:44:25;;;;;;;9.57;6.20;;;;;;;9.42;73.39;94032.31;4994214;28;20947;-73
2021/01/04 10:46:58;;;;;;;11.80;5.40;;;;;;;9.48;72.94;94020.22;5010808;28;20272;-73
2021/01/04 10:49:26;;;;;;;10.77;6.80;;;;;;;9.39;72.65;94020.47;5010845;28;20792;-72
2021/01/04 10:51:52;;;;;;;8.73;6.03;;;;;;;9.41;73.49;94017.47;4994523;28;20423;-73
2021/01/04 10:54:21;;;;;;;8.37;5.20;;;;;;;9.49;72.43;94022.53;5011238;28;20450;-73
2021/01/04 10:56:59;;;;;;;9.43;5.00;;;;;;;9.56;71.92;94013.13;5010603;28;20459;-73
2021/01/04 10:59:37;;;;;;;6.07;4.63;;;;;;;9.51;71.57;93998.19;5011570;28;20486;-73
2021/01/04 11:02:03;;;;;;;7.23;4.83;;;;;;;9.39;72.05;93985.09;4994808;28;20459;-72
2021/01/04 11:04:29;;;;;;;10.20;5.37;;;;;;;9.42;72.63;93979.78;5011540;28;20483;-72
2021/01/04 11:07:12;;;;;;;9.67;5.93;;;;;;;9.49;72.25;93985.25;4994901;28;20173;-73
2021/01/04 11:09:40;;;;;;;8.93;5.53;;;;;;;9.52;73.26;93973.06;5011393;28;20264;-74
2021/01/04 11:12:16;;;;;;;7.77;5.10;;;;;;;9.44;73.22;93971.44;5011640;28;20848;-75
2021/01/04 11:15:03;;;;;;;8.70;5.50;;;;;;;9.57;73.11;93967.44;5011687;28;20934;-71
2021/01/04 11:17:29;;;;;;;9.87;4.97;;;;;;;9.51;73.72;93960.88;5011181;28;20443;-71
2021/01/04 11:20:07;;;;;;;8.53;5.17;;;;;;;9.53;73.94;93955.97;5010391;28;20428;-71
2021/01/04 11:22:33;;;;;;;11.03;5.03;;;;;;;9.56;73.78;93957.16;5011519;28;20435;-71
2021/01/04 11:25:00;;;;;;;9.90;6.50;;;;;;;9.40;74.77;93947.41;5010455;28;20459;-71
2021/01/04 11:27:25;;;;;;;10.93;6.10;;;;;;;9.52;74.71;93941.88;5011169;28;20196;-72
2021/01/04 11:29:51;;;;;;;9.90;6.43;;;;;;;9.57;73.84;93935.47;5011618;28;20872;-71
2021/01/04 11:32:17;;;;;;;10.23;5.80;;;;;;;9.56;74.10;93930.50;5011212;28;20226;-72
2021/01/04 11:34:50;;;;;;;9.53;5.27;;;;;;;9.60;74.12;93937.41;5009960;28;20527;-76
2021/01/04 11:37:16;;;;;;;12.57;7.07;;;;;;;9.59;73.64;93930.53;5011534;28;20527;-76
2021/01/04 11:39:41;;;;;;;11.73;6.13;;;;;;;9.61;73.51;93928.28;5011554;28;20411;-76
2021/01/04 11:42:07;;;;;;;11.17;6.43;;;;;;;9.61;73.58;93916.84;5011297;28;20454;-76
2021/01/04 11:44:33;;;;;;;9.37;5.63;;;;;;;9.65;72.93;93913.13;5011256;28;20178;-76
2021/01/04 11:47:00;;;;;;;10.67;5.43;;;;;;;9.53;74.20;93895.44;5011155;28;20177;-76
2021/01/04 11:49:25;;;;;;;12.10;6.43;;;;;;;9.51;74.94;93895.03;5011011;28;20322;-73
2021/01/04 11:51:51;;;;;;;9.07;5.90;;;;;;;9.52;74.71;93888.56;5011453;28;20412;-71
2021/01/04 11:54:17;;;;;;;11.13;6.97;;;;;;;9.48;74.98;93866.47;5014362;28;20683;-72
2021/01/04 11:56:42;;;;;;;18.37;6.30;;;;;;;9.57;75.62;93857.41;5016313;28;20424;-72
2021/01/04 11:59:08;;;;;;;11.20;5.97;;;;;;;9.59;75.26;93847.91;5014830;28;20181;-72
2021/01/04 12:01:36;;;;;;;10.27;6.50;;;;;;;9.58;75.51;93845.59;5014910;28;20165;-72
2021/01/04 12:04:06;;;;;;;12.33;6.83;;;;;;;9.51;75.49;93835.63;5014956;28;20208;-71
2021/01/04 12:06:31;;;;;;;11.93;5.63;;;;;;;9.49;74.50;93833.34;5014540;28;20416;-73
2021/01/04 12:08:57;;;;;;;13.00;6.60;;;;;;;9.47;75.36;93840.91;5014958;28;20423;-72
2021/01/04 12:11:23;;;;;;;9.50;5.70;;;;;;;9.40;75.62;93824.84;5014903;28;20179;-72
2021/01/04 12:13:49;;;;;;;9.33;5.13;;;;;;;9.43;75.10;93826.03;5015054;28;20200;-73